Historique des mesures à Cassis (13260), France
Quotidien Résumé Avril 6, 2017 Unités:  US    Métrique   Métrique/US
« Précédent (Jour)
Suivant (Jour) »
Quotidien Hebdomadaire Mensuel Annuel Période au choix
  Maximum: Minimum: Moyenne:
Température: 32 °F 53.2 °F 58.8 °F
Point de rosée: 32 °F 40.1 °F 44.8 °F
Humidité: Humidity % 49 % 56 %
Vitesse du vent: WindSpeedKMH mph 0.0 mph 3 mph
Rafales: WindSpeedGustKMH mph - -
Vent:- - ESE
Pression: 0 in 29.9 in -
Précipitations: 0 in    
Historical Graphs
 
 
Mesures pour : Avril 6, 2017
Heure Temperature Point de rosée Pression Vent Vitesse du vent Rafales Humidité Pluie (par heure) Conditions
32 °F 32 °F 0 in Calm     Humidity % 0 in SoftwareType W/m2
00:11 53.2 °F 43.7 °F 29.9 in NNE 4.0 mph 5.8 mph 70 % 0 in open2300-1.11 W/m2
01:11 54.3 °F 43.2 °F 29.9 in North 3.2 mph 11.9 mph 66 % 0 in open2300-1.11 W/m2
02:11 54.7 °F 42.6 °F 29.9 in NNE 2.6 mph 4.0 mph 64 % 0 in open2300-1.11 W/m2
03:11 54.9 °F 42.1 °F 29.9 in Calm   3.5 mph 62 % 0 in open2300-1.11 W/m2
04:11 55 °F 41.4 °F 29.9 in North 4.3 mph 7.9 mph 60 % 0 in open2300-1.11 W/m2
05:11 54.1 °F 41 °F 29.9 in Calm   2.6 mph 61 % 0 in open2300-1.11 W/m2
06:11 54.1 °F 40.6 °F 29.9 in NW 9.0 mph 9.0 mph 60 % 0 in open2300-1.11 W/m2
07:11 54.1 °F 40.1 °F 29.9 in North 11.1 mph 12.6 mph 59 % 0 in open2300-1.11 W/m2
08:11 54.3 °F 40.3 °F 29.9 in North 6.1 mph 9.3 mph 59 % 0 in open2300-1.11 W/m2
09:11 55.8 °F 41.5 °F 29.9 in NNW 3.5 mph 9.3 mph 59 % 0 in open2300-1.11 W/m2
10:11 57.7 °F 42.6 °F 29.9 in WNW 5.0 mph 5.0 mph 57 % 0 in open2300-1.11 W/m2
11:11 61.5 °F 45.1 °F 29.9 in ENE 1.4 mph 2.1 mph 55 % 0 in open2300-1.11 W/m2
12:11 66.6 °F 48.9 °F 29.9 in Calm   2.9 mph 53 % 0 in open2300-1.11 W/m2
13:11 67.3 °F 47.5 °F 29.9 in Calm   7.2 mph 49 % 0 in open2300-1.11 W/m2
14:11 68 °F 49.3 °F 29.9 in SE 7.2 mph 7.2 mph 51 % 0 in open2300-1.11 W/m2
15:11 68.2 °F 51.3 °F 29.9 in SSW 5.0 mph 8.7 mph 55 % 0 in open2300-1.11 W/m2
16:11 67.1 °F 50.4 °F 29.9 in South 2.1 mph 3.5 mph 55 % 0 in open2300-1.11 W/m2
17:11 66.9 °F 50.7 °F 29.9 in ESE 1.8 mph 1.8 mph 56 % 0 in open2300-1.11 W/m2
18:11 65.5 °F 49.8 °F 29.9 in SE 1.1 mph 1.4 mph 57 % 0 in open2300-1.11 W/m2
19:11 64.4 °F 48.2 °F 29.9 in Calm   2.6 mph 56 % 0 in open2300-1.11 W/m2
20:11 62.4 °F 47.8 °F 29.9 in Calm     59 % 0 in open2300-1.11 W/m2
21:11 59.9 °F 47.3 °F 29.9 in Calm     63 % 0 in open2300-1.11 W/m2
22:11 59.2 °F 46.2 °F 29.9 in ESE 5.0 mph 5.0 mph 62 % 0 in open2300-1.11 W/m2
23:11 58.5 °F 45.5 °F 30 in ENE 2.1 mph 2.1 mph 62 % 0 in open2300-1.11 W/m2
Observations météo à CASSIS
WU-History script by Weather Underground - 1 mb